createdAt,value
2022-08-21T00:00:29.044Z,21.75
2022-08-21T00:05:32.384Z,21.79
2022-08-21T00:10:33.790Z,21.85
2022-08-21T00:15:37.539Z,21.85
2022-08-21T00:20:40.713Z,21.80
2022-08-21T00:25:43.213Z,21.80
2022-08-21T00:30:45.570Z,21.81
2022-08-21T00:35:46.921Z,21.78
2022-08-21T00:40:55.290Z,21.59
2022-08-21T00:45:57.847Z,21.44
2022-08-21T00:51:09.518Z,21.60
2022-08-21T00:56:12.443Z,21.61
2022-08-21T01:01:14.879Z,21.64
2022-08-21T01:06:16.294Z,21.65
2022-08-21T01:11:18.225Z,21.65
2022-08-21T01:16:22.427Z,21.62
2022-08-21T01:21:28.072Z,21.62
2022-08-21T01:26:34.329Z,21.57
2022-08-21T01:31:36.103Z,21.49
2022-08-21T01:36:37.565Z,21.37
2022-08-21T01:41:38.943Z,21.39
2022-08-21T01:46:40.546Z,21.43
2022-08-21T01:51:42.168Z,21.43
2022-08-21T01:56:47.242Z,21.37
2022-08-21T02:01:49.410Z,21.25
2022-08-21T02:06:51.070Z,21.27
2022-08-21T02:11:53.162Z,21.21
2022-08-21T02:17:05.538Z,21.16
2022-08-21T02:22:11.871Z,21.22
2022-08-21T02:27:13.207Z,21.14
2022-08-21T02:32:15.840Z,21.21
2022-08-21T02:37:17.362Z,21.21
2022-08-21T02:42:18.935Z,21.15
2022-08-21T02:47:20.363Z,21.15
2022-08-21T02:52:22.829Z,21.09
2022-08-21T02:57:24.221Z,20.96
2022-08-21T03:02:26.662Z,20.98
2022-08-21T03:07:28.156Z,20.99
2022-08-21T03:12:30.081Z,21.02
2022-08-21T03:17:31.980Z,21.03
2022-08-21T03:22:33.628Z,20.73
2022-08-21T03:27:35.414Z,20.72
2022-08-21T03:32:37.205Z,20.63
2022-08-21T03:37:38.617Z,20.58
2022-08-21T03:42:40.408Z,20.51
2022-08-21T03:48:11.171Z,20.33
2022-08-21T03:53:17.355Z,20.20
2022-08-21T03:58:21.249Z,20.03
2022-08-21T04:03:22.631Z,19.94
2022-08-21T04:08:24.342Z,19.97
2022-08-21T04:13:28.952Z,19.91
2022-08-21T04:18:30.381Z,19.73
2022-08-21T04:23:32.130Z,19.86
2022-08-21T04:28:33.470Z,19.78
2022-08-21T04:33:35.542Z,19.73
2022-08-21T04:38:37.754Z,19.66
2022-08-21T04:43:40.390Z,19.73
2022-08-21T04:48:41.878Z,19.72
2022-08-21T04:53:50.022Z,19.67
2022-08-21T04:58:58.175Z,19.69
2022-08-21T05:04:02.751Z,19.60
2022-08-21T05:09:05.249Z,19.52
2022-08-21T05:14:06.647Z,19.51
2022-08-21T05:19:09.132Z,19.66
2022-08-21T05:24:11.275Z,19.59
2022-08-21T05:29:13.577Z,19.54
2022-08-21T05:34:19.135Z,19.58
2022-08-21T05:39:20.768Z,19.50
2022-08-21T05:44:22.490Z,19.37
2022-08-21T05:49:23.949Z,19.49
2022-08-21T05:54:25.707Z,19.65
2022-08-21T05:59:28.546Z,19.60
2022-08-21T06:04:30.238Z,19.61
2022-08-21T06:09:31.726Z,19.66
2022-08-21T06:14:33.154Z,19.88
2022-08-21T06:19:36.251Z,20.16
2022-08-21T06:24:37.634Z,20.37
2022-08-21T06:29:44.378Z,20.53
2022-08-21T06:34:46.191Z,20.72
2022-08-21T06:39:47.571Z,20.69
2022-08-21T06:44:51.178Z,20.66
2022-08-21T06:49:52.582Z,20.78
2022-08-21T06:54:54.760Z,21.05
2022-08-21T06:59:56.110Z,21.21
2022-08-21T07:04:57.482Z,21.33
2022-08-21T07:09:58.917Z,21.48
2022-08-21T07:15:00.399Z,21.61
2022-08-21T07:20:02.065Z,21.79
2022-08-21T07:25:05.246Z,21.83
2022-08-21T07:30:07.545Z,22.09
2022-08-21T07:35:09.039Z,22.12
2022-08-21T07:40:10.887Z,22.33
2022-08-21T07:45:13.714Z,22.62
2022-08-21T07:50:16.276Z,22.88
2022-08-21T07:55:20.575Z,23.19
2022-08-21T08:00:25.219Z,23.47
2022-08-21T08:05:29.017Z,23.64
2022-08-21T08:10:30.581Z,23.85
2022-08-21T08:15:37.349Z,23.99
2022-08-21T08:20:39.063Z,24.12
2022-08-21T08:25:41.952Z,24.10
2022-08-21T08:30:43.553Z,24.29
2022-08-21T08:35:48.606Z,24.45
2022-08-21T08:41:19.781Z,24.74
2022-08-21T08:46:35.271Z,25.06
2022-08-21T08:51:43.139Z,25.15
2022-08-21T08:56:45.994Z,25.30
2022-08-21T09:01:47.753Z,25.65
2022-08-21T09:06:55.311Z,26.07
2022-08-21T09:12:11.370Z,26.55
2022-08-21T09:17:25.053Z,26.55
2022-08-21T09:22:50.596Z,26.87
2022-08-21T09:27:52.397Z,26.58
2022-08-21T09:32:53.883Z,26.16
2022-08-21T09:38:03.745Z,26.21
2022-08-21T09:43:22.740Z,26.74
2022-08-21T09:48:32.459Z,27.19
2022-08-21T09:53:36.303Z,27.94
2022-08-21T09:58:39.913Z,28.28
2022-08-21T10:03:41.418Z,28.54
2022-08-21T10:08:42.894Z,29.15
2022-08-21T10:14:11.010Z,30.17
2022-08-21T10:19:32.066Z,30.08
2022-08-21T10:24:45.740Z,31.05
2022-08-21T10:29:56.063Z,29.90
2022-08-21T10:35:09.243Z,29.21
2022-08-21T10:40:22.419Z,28.68
2022-08-21T10:46:03.522Z,30.55
2022-08-21T10:51:15.069Z,32.50
2022-08-21T10:56:39.302Z,32.85
2022-08-21T11:02:00.636Z,37.58
2022-08-21T11:07:20.776Z,36.65
2022-08-21T11:12:43.500Z,39.87
2022-08-21T11:17:56.469Z,42.12
2022-08-21T11:23:15.500Z,42.94
2022-08-21T11:28:22.382Z,43.42
2022-08-21T11:33:43.382Z,42.64
2022-08-21T11:38:58.028Z,43.51
2022-08-21T11:44:35.380Z,38.41
2022-08-21T11:49:39.508Z,39.72
2022-08-21T11:55:23.497Z,41.54
2022-08-21T12:00:40.091Z,39.36
2022-08-21T12:05:45.634Z,37.64
2022-08-21T12:10:59.813Z,36.45
2022-08-21T12:16:15.406Z,35.64
2022-08-21T12:21:29.466Z,35.66
2022-08-21T12:26:48.592Z,34.45
2022-08-21T12:32:06.214Z,33.47
2022-08-21T12:37:35.931Z,33.34
2022-08-21T12:42:58.046Z,33.70
2022-08-21T12:48:27.089Z,32.86
2022-08-21T12:53:48.967Z,32.04
2022-08-21T12:58:54.721Z,32.91
2022-08-21T13:04:04.630Z,32.46
2022-08-21T13:09:11.765Z,32.83
2022-08-21T13:14:35.095Z,32.83
2022-08-21T13:19:42.239Z,32.03
2022-08-21T13:24:43.971Z,31.92
2022-08-21T13:29:47.454Z,32.10
2022-08-21T13:34:55.436Z,32.34
2022-08-21T13:39:56.960Z,32.05
2022-08-21T13:44:58.367Z,32.13
2022-08-21T13:50:00.548Z,32.33
2022-08-21T13:55:16.907Z,32.34
2022-08-21T14:00:27.758Z,31.71
2022-08-21T14:05:32.787Z,31.64
2022-08-21T14:10:41.766Z,31.65
2022-08-21T14:15:44.390Z,31.62
2022-08-21T14:20:46.655Z,31.55
2022-08-21T14:25:48.169Z,30.92
2022-08-21T14:30:51.523Z,30.68
2022-08-21T14:35:55.354Z,30.88
2022-08-21T14:41:01.242Z,30.85
2022-08-21T14:46:02.655Z,30.79
2022-08-21T14:51:04.137Z,30.73
2022-08-21T14:56:06.001Z,30.71
2022-08-21T15:01:08.418Z,30.28
2022-08-21T15:06:11.357Z,30.22
2022-08-21T15:11:41.108Z,30.05
2022-08-21T15:16:39.246Z,30.05
2022-08-21T15:21:40.635Z,29.96
2022-08-21T15:26:42.630Z,29.97
2022-08-21T15:32:00.653Z,29.90
2022-08-21T15:37:02.082Z,29.84
2022-08-21T15:42:10.587Z,29.75
2022-08-21T15:47:18.856Z,29.73
2022-08-21T15:52:22.291Z,29.54
2022-08-21T15:57:25.415Z,29.28
2022-08-21T16:02:31.247Z,29.29
2022-08-21T16:07:32.713Z,28.99
2022-08-21T16:12:39.561Z,28.95
2022-08-21T16:17:44.593Z,28.82
2022-08-21T16:22:46.319Z,28.67
2022-08-21T16:27:53.632Z,28.52
2022-08-21T16:32:58.097Z,28.49
2022-08-21T16:37:59.692Z,28.30
2022-08-21T16:43:02.174Z,28.25
2022-08-21T16:48:06.460Z,28.16
2022-08-21T16:53:08.553Z,28.00
2022-08-21T16:58:32.266Z,27.90
2022-08-21T17:03:42.287Z,27.77
2022-08-21T17:08:44.742Z,27.68
2022-08-21T17:13:46.057Z,27.57
2022-08-21T17:18:47.806Z,27.39
2022-08-21T17:23:53.614Z,27.30
2022-08-21T17:28:55.227Z,27.19
2022-08-21T17:33:56.872Z,27.09
2022-08-21T17:38:58.865Z,26.94
2022-08-21T17:44:06.195Z,26.87
2022-08-21T17:49:08.513Z,26.76
2022-08-21T17:54:10.399Z,26.67
2022-08-21T17:59:12.165Z,26.53
2022-08-21T18:04:14.251Z,26.48
2022-08-21T18:09:15.620Z,26.37
2022-08-21T18:14:17.022Z,26.20
2022-08-21T18:19:21.350Z,26.18
2022-08-21T18:24:23.907Z,26.03
2022-08-21T18:29:25.363Z,25.98
2022-08-21T18:34:31.776Z,25.77
2022-08-21T18:39:37.269Z,25.79
2022-08-21T18:44:41.224Z,25.70
2022-08-21T18:49:42.634Z,25.62
2022-08-21T18:54:44.332Z,25.48
2022-08-21T18:59:46.548Z,25.32
2022-08-21T19:04:48.197Z,25.31
2022-08-21T19:10:20.993Z,25.29
2022-08-21T19:15:17.333Z,25.23
2022-08-21T19:20:26.161Z,25.11
2022-08-21T19:25:33.919Z,25.01
2022-08-21T19:30:47.935Z,24.98
2022-08-21T19:41:13.833Z,24.81
2022-08-21T19:46:22.122Z,24.68
2022-08-21T19:51:24.019Z,24.67
2022-08-21T19:56:28.939Z,24.49
2022-08-21T20:01:30.455Z,24.38
2022-08-21T20:06:34.820Z,24.26
2022-08-21T20:11:45.168Z,24.32
2022-08-21T20:16:52.435Z,24.29
2022-08-21T20:21:55.086Z,24.29
2022-08-21T20:26:58.329Z,24.21
2022-08-21T20:32:00.270Z,24.12
2022-08-21T20:37:02.053Z,23.94
2022-08-21T20:42:08.769Z,23.88
2022-08-21T20:47:10.676Z,23.72
2022-08-21T20:52:15.905Z,23.64
2022-08-21T20:57:22.003Z,23.69
2022-08-21T21:02:46.093Z,23.70
2022-08-21T21:08:12.071Z,23.62
2022-08-21T21:13:44.570Z,23.57
2022-08-21T21:18:54.295Z,23.49
2022-08-21T21:24:20.345Z,23.37
2022-08-21T21:29:30.356Z,23.17
2022-08-21T21:34:38.343Z,23.17
2022-08-21T21:39:53.155Z,23.02
2022-08-21T21:45:10.110Z,23.01
2022-08-21T21:50:20.948Z,22.90
2022-08-21T21:55:53.265Z,22.72
2022-08-21T22:01:11.977Z,22.68
2022-08-21T22:06:23.018Z,22.75
2022-08-21T22:11:33.273Z,22.59
2022-08-21T22:16:36.892Z,22.45
2022-08-21T22:21:42.483Z,22.55
2022-08-21T22:26:50.660Z,22.58
2022-08-21T22:32:10.457Z,22.46
2022-08-21T22:37:12.832Z,22.43
2022-08-21T22:42:22.207Z,22.40
2022-08-21T22:47:30.437Z,22.39
2022-08-21T22:52:37.264Z,22.30
2022-08-21T22:57:39.599Z,22.24
2022-08-21T23:03:16.477Z,22.33
2022-08-21T23:08:37.273Z,22.32
2022-08-21T23:13:45.757Z,22.34
2022-08-21T23:19:11.355Z,22.32
2022-08-21T23:24:50.404Z,22.27
2022-08-21T23:29:51.809Z,22.27
2022-08-21T23:35:44.179Z,22.21
2022-08-21T23:40:57.994Z,22.10
2022-08-21T23:46:20.983Z,22.07
2022-08-21T23:51:57.453Z,22.03
2022-08-21T23:57:08.247Z,22.00
